Borger, TX (79007)

10:48 PM CDT on May 25, 2017 (GMT -0500)
Yucca Park | | Change Station

Elev 3156 ft 35.65 °N, 101.38 °W | Updated 8 seconds ago

Clear
Clear
77.9 °F
Feels Like 77 °F
N
4.0
Wind Variable Wind from SSW
Gusts 9.0 mph

Today
High -- | Low -- °F
--% Chance of Precip.
Yesterday
High -- | Low -- °F
Precip. -- in
Pressure 29.42 in
Visibility 10.0 miles
Clouds Clear
Heat Index 77 °F
Dew Point 34 °F
Humidity 20%
Rainfall 0.00 in
Snow Depth Not available.
6:33 AM 8:51 PM
New Moon, 0% visible
METAR KBGD 260251Z AUTO 22009KT 10SM CLR 28/M02 A2956 RMK AO2 SLP960 T02781022 53009
Pressure 29.42 in
Visibility 10.0 miles
Clouds Clear
Heat Index 77 °F
Dew Point 34 °F
Humidity 20%
Rainfall 0.00 in
Snow Depth Not available.
6:33 AM 8:51 PM
New Moon, 0% visible
METAR KBGD 260251Z AUTO 22009KT 10SM CLR 28/M02 A2956 RMK AO2 SLP960 T02781022 53009

Get Severe Weather Alerts

Thanks for signing up!

Be on the lookout for a verification email in your inbox.

You'll start receiving the daily forecast at 6 AM.

×

10-Day Weather Forecast

Almanac

Astronomy

May. 25, 2017 Rise Set
Actual Time
Civil Twilight
Nautical Twilight
Astronomical Twilight
Moon
Length of Visible Light
Length of Day
Tomorrow will be .
, % of the Moon is Illuminated

Today's Extremes

State Highs State Lows

Community

WunderPhotos

Category 6

Welcome to Category 6. This is the collective home for Weather Underground's featured writeups by Dr. Jeff Masters (right), Bob Henson (left), Chris Burt, and other regular contributors.

Nearby

Air Quality

  Air Quality AQ Index Pollutant
Not available.

Snow Depth

Station Depth Elevation

Earthquake Activity

City Distance Mag. Time & Date
Minimum magnitude displayed is 2.5.

Coastal Water Temperatures

Place Temperature

Stations

Nearby Weather Stations

Station Location Temp. Windchill Dew Point Humidity Wind Precip. Elev Updated Type
                   

Watches & Warnings

There are currently no watches in effect.